No particular awareness of the weather is required.    There are no Weather-warnings


Nieuwrode (Holsbeek) more information Nieuwrode (Holsbeek)


Thunder radar more information blitzortung!


Rain radar more information rain snow radar



Weather Underground History page Text

Daily Summary for December 17, 2018 Units:  Metric    English   Both
« Previous Day
Next Day »
Daily Weekly Monthly Yearly Custom
  Current: High: Low: Average:
Temperature: -2.8 °C -17.8 °C -2.8 °C -0.7 °C
Dew Point: -6.3 °C -17.8 °C -6.3 °C -5.4 °C
Humidity: 77 % Humidity % 66 % 70 %
Wind Speed: 3.5 km/h 0 km/h 0.3 km/h 4.8 km/h
Wind Gust: 3.9 km/h 0 km/h - -
Wind:NNW - - WNW
Pressure: 1022.9 hPa 0 hPa 1018.8 hPa -
Precipitation: 0 mm      
Historical Graphs
 
 
Tabular Data for December 17, 2018
Time Temperature Dew Point Pressure Wind Wind Speed Wind Gust Humidity Rainfall Rate (Hourly)
-17.8 °C -17.8 °C 0 hPa Calm     Humidity % 0 mm
00:04 1.5 °C -4.2 °C 1018.8 hPa West 4.7 km/h 7.4 km/h 66 % 0 mm
00:09 1.4 °C -4.2 °C 1018.8 hPa WNW 3.2 km/h 3.7 km/h 66 % 0 mm
00:14 1.3 °C -4.1 °C 1018.8 hPa WNW 6.8 km/h 7.4 km/h 67 % 0 mm
00:19 1.4 °C -4.3 °C 1018.8 hPa WNW 6.9 km/h 11.1 km/h 66 % 0 mm
00:24 1.3 °C -4.1 °C 1019.2 hPa NW 3.1 km/h 3.9 km/h 67 % 0 mm
00:29 1.3 °C -4.2 °C 1019.2 hPa NW 5.1 km/h 7.7 km/h 67 % 0 mm
00:34 1.3 °C -4.4 °C 1019.2 hPa NNW 6.6 km/h 7.7 km/h 66 % 0 mm
00:39 1.2 °C -4.4 °C 1019.2 hPa WNW 6.8 km/h 7.7 km/h 66 % 0 mm
00:44 1.2 °C -4.5 °C 1019.2 hPa WNW 7.4 km/h 7.4 km/h 66 % 0 mm
00:49 1.1 °C -4.6 °C 1019.2 hPa West 4.3 km/h 7.4 km/h 66 % 0 mm
00:54 1.1 °C -4.6 °C 1019.2 hPa NW 5.5 km/h 7.4 km/h 66 % 0 mm
00:59 1.1 °C -4.4 °C 1019.2 hPa West 4.8 km/h 7.4 km/h 67 % 0 mm
01:04 1.1 °C -4.6 °C 1019.2 hPa West 8 km/h 9.3 km/h 66 % 0 mm
01:09 1 °C -4.7 °C 1019.5 hPa West 4.8 km/h 9.3 km/h 66 % 0 mm
01:14 1.1 °C -4.6 °C 1019.5 hPa NW 3.9 km/h 9.3 km/h 66 % 0 mm
01:19 0.9 °C -4.5 °C 1019.5 hPa West 2.3 km/h 3.9 km/h 67 % 0 mm
01:24 0.9 °C -4.6 °C 1019.5 hPa WSW 3.9 km/h 11.6 km/h 67 % 0 mm
01:29 0.9 °C -4.8 °C 1019.5 hPa WNW 7.1 km/h 7.7 km/h 66 % 0 mm
01:34 0.8 °C -4.8 °C 1019.5 hPa WNW 5.5 km/h 9.3 km/h 66 % 0 mm
01:39 0.8 °C -4.8 °C 1019.5 hPa West 7.7 km/h 11.1 km/h 66 % 0 mm
01:44 0.8 °C -4.8 °C 1019.9 hPa West 4.5 km/h 7.4 km/h 66 % 0 mm
01:49 0.8 °C -4.7 °C 1019.9 hPa West 8.7 km/h 7.4 km/h 67 % 0 mm
01:54 0.8 °C -4.8 °C 1020.2 hPa West 9.3 km/h 9.7 km/h 66 % 0 mm
01:59 0.7 °C -4.7 °C 1020.2 hPa NW 6.1 km/h 7.7 km/h 67 % 0 mm
02:04 0.6 °C -4.8 °C 1020.5 hPa WNW 9.7 km/h 13.5 km/h 67 % 0 mm
02:09 0.7 °C -4.9 °C 1020.5 hPa WNW 10.3 km/h 13 km/h 66 % 0 mm
02:14 0.6 °C -4.9 °C 1020.2 hPa WNW 8.4 km/h 9.3 km/h 67 % 0 mm
02:19 0.5 °C -4.9 °C 1020.5 hPa NW 5.6 km/h 7.7 km/h 67 % 0 mm
02:24 0.4 °C -5 °C 1020.5 hPa WNW 5 km/h 9.3 km/h 67 % 0 mm
02:29 0.3 °C -4.9 °C 1020.5 hPa West 4.8 km/h 9.3 km/h 68 % 0 mm
02:34 0.2 °C -5 °C 1020.5 hPa NW 8.4 km/h 9.7 km/h 68 % 0 mm
02:39 0.2 °C -5.1 °C 1020.5 hPa NW 6.4 km/h 7.7 km/h 68 % 0 mm
02:44 0.2 °C -5.1 °C 1020.5 hPa NW 6.8 km/h 7.4 km/h 68 % 0 mm
02:49 0.1 °C -5.1 °C 1020.5 hPa WNW 8 km/h 9.3 km/h 68 % 0 mm
02:54 0.1 °C -4.9 °C 1020.5 hPa NW 6.1 km/h 9.3 km/h 69 % 0 mm
02:59 -0.1 °C -5.1 °C 1020.5 hPa NW 6.4 km/h 9.3 km/h 69 % 0 mm
03:04 -0.2 °C -5.2 °C 1020.5 hPa NW 3.1 km/h 3.9 km/h 69 % 0 mm
03:09 -0.3 °C -5.1 °C 1020.5 hPa NW 6.3 km/h 7.7 km/h 70 % 0 mm
03:14 -0.3 °C -5.2 °C 1020.5 hPa NW 7.7 km/h 9.7 km/h 70 % 0 mm
03:19 -0.4 °C -5.2 °C 1020.9 hPa WNW 6.8 km/h 7.7 km/h 70 % 0 mm
03:24 -0.4 °C -5.3 °C 1021.2 hPa WNW 6.1 km/h 9.3 km/h 70 % 0 mm
03:29 -0.5 °C -5.3 °C 1021.2 hPa NW 10.5 km/h 11.1 km/h 70 % 0 mm
03:34 -0.6 °C -5.2 °C 1021.2 hPa NW 6.8 km/h 11.6 km/h 71 % 0 mm
03:39 -0.7 °C -5.3 °C 1021.2 hPa WNW 4 km/h 5.6 km/h 71 % 0 mm
03:44 -0.8 °C -5.4 °C 1021.2 hPa NW 6.8 km/h 9.3 km/h 71 % 0 mm
03:49 -0.9 °C -5.3 °C 1021.2 hPa NW 4.3 km/h 9.3 km/h 72 % 0 mm
03:54 -0.9 °C -5.3 °C 1021.2 hPa NW 4 km/h 7.4 km/h 72 % 0 mm
03:59 -1.1 °C -5.4 °C 1021.2 hPa NNW 2.7 km/h 7.4 km/h 72 % 0 mm
04:04 -1.1 °C -5.3 °C 1021.2 hPa NW 4 km/h 3.9 km/h 73 % 0 mm
04:09 -1.2 °C -5.6 °C 1021.2 hPa NE 3.7 km/h 5.6 km/h 72 % 0 mm
04:14 -1.3 °C -5.5 °C 1021.6 hPa NW 1.4 km/h 1.9 km/h 73 % 0 mm
04:19 -1.3 °C -5.6 °C 1021.6 hPa NW 1.4 km/h 1.9 km/h 73 % 0 mm
04:24 -1.4 °C -5.5 °C 1021.9 hPa NW 3.2 km/h 7.4 km/h 74 % 0 mm
04:29 -1.6 °C -5.6 °C 1021.9 hPa NW 1.4 km/h 3.7 km/h 74 % 0 mm
04:34 -1.7 °C -5.7 °C 1021.9 hPa NW 2.1 km/h 7.4 km/h 74 % 0 mm
04:39 -1.7 °C -5.7 °C 1021.9 hPa NNW 2.9 km/h 3.9 km/h 74 % 0 mm
04:44 -1.8 °C -5.8 °C 1022.2 hPa NNW 4.8 km/h 7.4 km/h 74 % 0 mm
04:49 -1.8 °C -5.7 °C 1022.2 hPa NNW 1.6 km/h 3.9 km/h 75 % 0 mm
04:54 -1.9 °C -5.8 °C 1022.2 hPa NNW 3.1 km/h 3.9 km/h 75 % 0 mm
04:59 -2.1 °C -5.7 °C 1022.2 hPa NNW 1.8 km/h 3.7 km/h 76 % 0 mm
05:04 -2.1 °C -5.8 °C 1022.2 hPa NNW 3.2 km/h 3.7 km/h 76 % 0 mm
05:09 -2.2 °C -5.8 °C 1022.6 hPa NNW 5.3 km/h 7.4 km/h 76 % 0 mm
05:14 -2.2 °C -5.9 °C 1022.6 hPa NW 4.8 km/h 7.7 km/h 76 % 0 mm
05:19 -2.3 °C -5.9 °C 1022.6 hPa NW 2.7 km/h 7.4 km/h 76 % 0 mm
05:24 -2.3 °C -6 °C 1022.6 hPa NW 4.2 km/h 7.7 km/h 76 % 0 mm
05:29 -2.4 °C -6.1 °C 1022.6 hPa NW 0.3 km/h 1.9 km/h 76 % 0 mm
05:34 -2.4 °C -6.1 °C 1022.6 hPa NW 1.6 km/h 3.7 km/h 76 % 0 mm
05:39 -2.4 °C -6.1 °C 1022.6 hPa NW 1.9 km/h 3.7 km/h 76 % 0 mm
05:44 -2.4 °C -6.1 °C 1022.6 hPa NW 1.6 km/h 1.9 km/h 76 % 0 mm
05:49 -2.5 °C -6.2 °C 1022.6 hPa NW 2.6 km/h 3.7 km/h 76 % 0 mm
05:54 -2.5 °C -6 °C 1022.9 hPa NW 2.4 km/h 3.7 km/h 77 % 0 mm
05:59 -2.5 °C -6 °C 1022.9 hPa NW 2.9 km/h 7.4 km/h 77 % 0 mm
06:04 -2.6 °C -6.1 °C 1022.9 hPa NW 3.2 km/h 3.9 km/h 77 % 0 mm
06:09 -2.6 °C -6.1 °C 1022.9 hPa NW 2.9 km/h 3.7 km/h 77 % 0 mm
06:14 -2.7 °C -6.2 °C 1022.9 hPa NW 2.3 km/h 3.9 km/h 77 % 0 mm
06:19 -2.7 °C -6.2 °C 1022.9 hPa NNW 3.1 km/h 7.4 km/h 77 % 0 mm
06:24 -2.8 °C -6.3 °C 1022.9 hPa NNW 3.5 km/h 3.9 km/h 77 % 0 mm
Weerstation Nieuwrode (Holsbeek)
Compliments of Weather Underground - 3 mb

Script developed by  Jim McMurry - jmcmurry@mwt.net Adapted for the template by  Wim van der Kuil - Leuven-Template.eu

You find our weather info also at:


Het Weer Aktueel

European Weather Network

Weather Underground

AWEKAS

HAMweather, WeatherForYou, PWS Weather

Equipment we use:


Weather-station
Davis VP2 Plus

Weather-program
Weather Display

Davis VP2 Plus

Weather Display